Ana Sayfa
METAR-TAF:

METAR-TAF

Havaalanları :

Kotzebue, Alaska, Amerika Birleşik Devletleri

Enlem: 66-53-04N, Boylam: 162-35-54W, yükseklik: 3 m

Güncel hava durumu gözlemi

Rapor saat 22:53 UTC de 1 saat ve 1 dakika önce yapıldı.
Rüzgar batıdan 12 kt
Sıcaklık -1°C
Nem 93%
Basınç 1016 hPa
Görüş mesafesi: 16.1 km
10000 ft yükseklikte çok bulutlu

METAR: PAOT 202253Z 28012KT 10SM OVC100 M01/M02 A3000 RMK AO2 SLP158 T10111022

Saat: 15:54 (23:54 UTC)

Tahmin

Rapor saat 23:31 UTC de 23 dakika önce yapıldı.
Ayın 21'si saat 00 UTC'den ayın 21'si saat 24 UTC'ye kadar geçerli Tahmin
Rüzgar batı/kuzeybatıdan 10 kt
Görüş mesafesi: 10 km
10000 ft yükseklikte çok bulutlu
Ayın 21'si saat 1200 UTC'den
Rüzgar kuzey/kuzeybatıdan 10 kt
Görüş mesafesi: 10 km
10000 ft yükseklikte parçalı bulutlu

TAF: PAOT 202331Z 2100/2124 30010KT P6SM OVC100 FM211200 34010KT P6SM SCT100

4.000'den fazla havaalanı için hava durumu gözlemleri ve tahminleri (METAR ve TAF raporları).

Kullanılabilir istasyonlar harita üzerinde sarı ve kırmızı noktalarla gösterilir.

İstasyonun adını görmek için fareyi noktanın üzerinde gezdirin.

Sonrasında hava gözlem ve tahminlerini görmek için tıklayın.

Haritayı değiştirmek için: yaklaştırmak için siyah artı işaretli yeşil düğmeye ve uzaklaştırmak için de eksi işaretli düğmeye hızla tıklayın; bitişik haritalar için yeşil okları kullanın.


METAR-TAF: